createdAt,value
2019-02-18T00:01:18.598Z,37.23
2019-02-18T00:03:46.746Z,39.77
2019-02-18T00:06:14.902Z,41.50
2019-02-18T00:08:42.934Z,41.47
2019-02-18T00:11:11.031Z,41.63
2019-02-18T00:13:39.087Z,41.27
2019-02-18T00:16:07.180Z,42.70
2019-02-18T00:18:35.295Z,37.67
2019-02-18T00:21:08.316Z,41.93
2019-02-18T00:23:36.620Z,42.93
2019-02-18T00:26:04.977Z,40.03
2019-02-18T00:28:33.176Z,39.83
2019-02-18T00:31:01.353Z,40.80
2019-02-18T00:33:29.479Z,42.00
2019-02-18T00:35:57.617Z,39.73
2019-02-18T00:38:26.309Z,40.23
2019-02-18T00:40:54.501Z,41.57
2019-02-18T00:43:22.637Z,41.07
2019-02-18T00:45:50.792Z,37.80
2019-02-18T00:48:18.922Z,37.80
2019-02-18T00:50:47.038Z,37.50
2019-02-18T00:53:15.135Z,41.80
2019-02-18T00:55:43.341Z,41.97
2019-02-18T00:58:11.590Z,42.20
2019-02-18T01:00:39.651Z,39.83
2019-02-18T01:03:07.838Z,42.53
2019-02-18T01:05:36.054Z,39.93
2019-02-18T01:08:04.117Z,41.17
2019-02-18T01:10:32.223Z,40.53
2019-02-18T01:13:00.259Z,38.63
2019-02-18T01:15:28.288Z,40.63
2019-02-18T01:17:56.424Z,44.90
2019-02-18T01:20:24.519Z,39.33
2019-02-18T01:22:52.787Z,39.57
2019-02-18T01:25:20.862Z,40.53
2019-02-18T01:27:48.917Z,41.70
2019-02-18T01:30:16.960Z,40.97
2019-02-18T01:32:45.275Z,42.60
2019-02-18T01:35:13.513Z,44.10
2019-02-18T01:37:45.676Z,44.63
2019-02-18T01:40:13.160Z,42.30
2019-02-18T01:42:41.185Z,41.97
2019-02-18T01:45:10.943Z,39.33
2019-02-18T01:47:39.068Z,45.30
2019-02-18T01:50:13.039Z,44.70
2019-02-18T01:52:41.154Z,42.70
2019-02-18T01:55:10.809Z,42.67
2019-02-18T01:57:39.005Z,39.63
2019-02-18T02:00:11.081Z,40.47
2019-02-18T02:02:39.415Z,40.10
2019-02-18T02:05:08.820Z,44.47
2019-02-18T02:07:36.930Z,45.90
2019-02-18T02:10:05.780Z,42.43
2019-02-18T02:12:34.052Z,41.97
2019-02-18T02:15:04.624Z,42.40
2019-02-18T02:17:32.827Z,45.40
2019-02-18T02:20:00.863Z,43.60
2019-02-18T02:22:29.018Z,40.40
2019-02-18T02:24:57.151Z,40.67
2019-02-18T02:27:25.197Z,42.90
2019-02-18T02:29:53.259Z,40.63
2019-02-18T02:32:21.397Z,40.17
2019-02-18T02:34:49.570Z,35.40
2019-02-18T02:37:17.621Z,35.50
2019-02-18T02:39:45.833Z,38.13
2019-02-18T02:42:13.931Z,34.13
2019-02-18T02:44:42.052Z,36.53
2019-02-18T02:47:10.136Z,33.47
2019-02-18T02:49:38.335Z,37.00
2019-02-18T02:52:06.457Z,37.80
2019-02-18T02:54:34.468Z,36.63
2019-02-18T02:57:02.757Z,37.13
2019-02-18T02:59:30.977Z,38.03
2019-02-18T03:01:59.588Z,36.17
2019-02-18T03:04:27.711Z,33.60
2019-02-18T03:06:55.798Z,32.40
2019-02-18T03:09:23.942Z,35.23
2019-02-18T03:11:52.101Z,35.53
2019-02-18T03:14:20.228Z,32.80
2019-02-18T03:16:48.421Z,34.67
2019-02-18T03:19:16.657Z,36.97
2019-02-18T03:21:45.038Z,31.83
2019-02-18T03:24:13.116Z,34.17
2019-02-18T03:26:41.236Z,34.03
2019-02-18T03:30:03.764Z,30.57
2019-02-18T03:32:43.026Z,30.03
2019-02-18T03:35:11.078Z,30.37
2019-02-18T03:37:39.473Z,30.30
2019-02-18T03:40:13.113Z,31.33
2019-02-18T03:42:41.800Z,31.03
2019-02-18T03:45:10.033Z,30.67
2019-02-18T03:47:38.146Z,32.87
2019-02-18T03:50:06.522Z,27.43
2019-02-18T03:52:34.670Z,27.00
2019-02-18T03:55:03.091Z,28.50
2019-02-18T03:57:31.172Z,30.90
2019-02-18T03:59:59.371Z,30.80
2019-02-18T04:02:27.469Z,30.20
2019-02-18T04:04:55.551Z,29.17
2019-02-18T04:07:23.684Z,28.93
2019-02-18T04:09:52.801Z,32.07
2019-02-18T04:12:20.951Z,30.37
2019-02-18T04:14:49.205Z,28.57
2019-02-18T04:17:17.379Z,28.77
2019-02-18T04:19:45.455Z,24.93
2019-02-18T04:22:13.676Z,28.87
2019-02-18T04:24:41.822Z,30.20
2019-02-18T04:27:09.911Z,36.87
2019-02-18T04:29:39.118Z,28.10
2019-02-18T04:32:07.199Z,31.33
2019-02-18T04:34:35.404Z,26.67
2019-02-18T04:37:03.553Z,28.07
2019-02-18T04:39:32.003Z,26.37
2019-02-18T04:42:00.227Z,27.33
2019-02-18T04:44:28.276Z,28.23
2019-02-18T04:46:56.310Z,25.37
2019-02-18T04:49:24.466Z,26.90
2019-02-18T04:51:52.499Z,26.53
2019-02-18T04:54:20.640Z,27.77
2019-02-18T04:56:48.772Z,26.90
2019-02-18T04:59:16.873Z,26.17
2019-02-18T05:01:45.151Z,30.37
2019-02-18T05:04:14.181Z,26.13
2019-02-18T05:06:43.549Z,26.80
2019-02-18T05:09:11.814Z,26.13
2019-02-18T05:11:39.996Z,24.50
2019-02-18T05:14:08.152Z,26.80
2019-02-18T05:16:36.436Z,26.43
2019-02-18T05:19:04.509Z,36.10
2019-02-18T05:21:32.535Z,25.20
2019-02-18T05:24:00.591Z,27.87
2019-02-18T05:26:28.932Z,28.60
2019-02-18T05:28:57.016Z,27.17
2019-02-18T05:31:25.078Z,26.17
2019-02-18T05:33:53.312Z,28.83
2019-02-18T05:36:21.338Z,30.73
2019-02-18T05:38:49.530Z,27.73
2019-02-18T05:41:17.670Z,26.20
2019-02-18T05:43:45.765Z,24.83
2019-02-18T05:46:13.881Z,26.40
2019-02-18T05:48:42.095Z,29.40
2019-02-18T05:51:10.211Z,26.47
2019-02-18T05:53:38.368Z,27.87
2019-02-18T05:56:06.462Z,28.03
2019-02-18T05:58:34.460Z,28.47
2019-02-18T06:01:02.661Z,28.00
2019-02-18T06:03:30.705Z,28.80
2019-02-18T06:05:58.869Z,27.63
2019-02-18T06:08:27.128Z,24.47
2019-02-18T06:10:55.271Z,28.03
2019-02-18T06:13:25.408Z,26.27
2019-02-18T06:15:53.398Z,27.30
2019-02-18T06:18:21.551Z,26.47
2019-02-18T06:20:49.665Z,26.97
2019-02-18T06:23:17.787Z,28.07
2019-02-18T06:25:45.959Z,26.57
2019-02-18T06:28:13.995Z,28.13
2019-02-18T06:30:42.117Z,31.20
2019-02-18T06:33:10.228Z,27.93
2019-02-18T06:35:38.349Z,27.90
2019-02-18T06:38:06.506Z,25.40
2019-02-18T06:40:34.667Z,31.20
2019-02-18T06:43:03.892Z,25.47
2019-02-18T06:45:38.773Z,26.63
2019-02-18T06:48:35.442Z,26.37
2019-02-18T06:51:03.648Z,27.67
2019-02-18T06:53:31.793Z,27.47
2019-02-18T06:55:59.962Z,24.83
2019-02-18T06:58:35.602Z,29.20
2019-02-18T07:01:26.001Z,29.57
2019-02-18T07:04:13.660Z,27.97
2019-02-18T07:06:54.129Z,30.10
2019-02-18T07:09:31.184Z,28.00
2019-02-18T07:12:04.606Z,32.33
2019-02-18T07:14:32.722Z,30.33
2019-02-18T07:17:00.958Z,34.67
2019-02-18T07:19:30.298Z,32.30
2019-02-18T07:21:58.483Z,33.47
2019-02-18T07:24:26.695Z,31.33
2019-02-18T07:26:54.800Z,37.57
2019-02-18T07:29:22.990Z,36.30
2019-02-18T07:31:51.066Z,40.93
2019-02-18T07:34:19.087Z,29.00
2019-02-18T07:36:47.318Z,33.77
2019-02-18T07:39:15.450Z,40.17
2019-02-18T07:41:43.706Z,38.53
2019-02-18T07:44:11.891Z,41.40
2019-02-18T07:46:40.215Z,33.37
2019-02-18T07:49:08.385Z,32.37
2019-02-18T07:51:36.497Z,31.30
2019-02-18T07:54:04.640Z,28.20
2019-02-18T07:56:32.681Z,31.57
2019-02-18T07:59:00.986Z,30.10
2019-02-18T08:01:29.034Z,29.33
2019-02-18T08:03:57.110Z,29.77
2019-02-18T08:06:25.363Z,28.70
2019-02-18T08:08:53.537Z,27.90
2019-02-18T08:11:22.656Z,23.03
2019-02-18T08:13:50.823Z,25.13
2019-02-18T08:16:18.887Z,27.80
2019-02-18T08:18:47.228Z,28.67
2019-02-18T08:21:16.228Z,30.77
2019-02-18T08:23:44.357Z,27.40
2019-02-18T08:26:15.287Z,27.00
2019-02-18T08:28:43.349Z,24.93
2019-02-18T08:31:11.577Z,25.30
2019-02-18T08:33:39.641Z,25.63
2019-02-18T08:36:07.815Z,23.73
2019-02-18T08:38:35.940Z,26.13
2019-02-18T08:41:04.163Z,21.97
2019-02-18T08:43:32.439Z,23.50
2019-02-18T08:46:02.627Z,24.60
2019-02-18T08:48:30.817Z,22.90
2019-02-18T08:50:58.865Z,23.47
2019-02-18T08:53:26.867Z,24.40
2019-02-18T08:55:54.936Z,25.50
2019-02-18T08:58:22.977Z,26.10
2019-02-18T09:00:51.056Z,23.57
2019-02-18T09:03:19.148Z,23.63
2019-02-18T09:05:47.175Z,24.70
2019-02-18T09:08:15.191Z,27.40
2019-02-18T09:10:43.219Z,25.70
2019-02-18T09:13:11.337Z,23.87
2019-02-18T09:15:39.548Z,30.87
2019-02-18T09:18:07.718Z,25.37
2019-02-18T09:20:35.892Z,28.67
2019-02-18T09:23:21.838Z,23.47
2019-02-18T09:25:54.210Z,23.73
2019-02-18T09:28:23.402Z,26.60
2019-02-18T09:30:53.664Z,24.93
2019-02-18T09:33:21.710Z,23.47
2019-02-18T09:35:49.747Z,23.40
2019-02-18T09:38:24.780Z,26.33
2019-02-18T09:40:51.430Z,25.80
2019-02-18T09:43:19.177Z,28.40
2019-02-18T09:45:47.229Z,29.87
2019-02-18T09:48:15.340Z,24.33
2019-02-18T09:50:44.666Z,30.07
2019-02-18T09:53:12.879Z,25.70
2019-02-18T09:55:41.017Z,28.63
2019-02-18T09:58:09.300Z,25.63
2019-02-18T10:00:37.673Z,24.97
2019-02-18T10:03:05.747Z,23.50
2019-02-18T10:05:33.973Z,23.43
2019-02-18T10:08:02.159Z,24.63
2019-02-18T10:10:30.340Z,28.10
2019-02-18T10:12:59.680Z,29.00
2019-02-18T10:15:27.952Z,25.63
2019-02-18T10:17:55.979Z,24.70
2019-02-18T10:20:24.197Z,29.20
2019-02-18T10:22:52.201Z,25.27
2019-02-18T10:25:20.324Z,28.80
2019-02-18T10:27:48.700Z,28.30
2019-02-18T10:30:16.808Z,27.10
2019-02-18T10:32:45.075Z,26.90
2019-02-18T10:35:13.213Z,25.60
2019-02-18T10:37:41.585Z,26.03
2019-02-18T10:40:10.114Z,25.87
2019-02-18T10:42:39.344Z,28.03
2019-02-18T10:45:09.288Z,25.70
2019-02-18T10:47:38.000Z,30.83
2019-02-18T10:50:07.575Z,24.50
2019-02-18T10:52:35.902Z,30.07
2019-02-18T10:55:03.997Z,29.93
2019-02-18T10:57:32.174Z,28.83
2019-02-18T11:00:00.389Z,30.00
2019-02-18T11:02:28.540Z,32.27
2019-02-18T11:04:56.612Z,33.13
2019-02-18T11:07:27.190Z,30.73
2019-02-18T11:09:55.389Z,29.93
2019-02-18T11:12:23.530Z,31.77
2019-02-18T11:14:51.612Z,23.90
2019-02-18T11:17:19.772Z,30.50
2019-02-18T11:19:48.100Z,27.60
2019-02-18T11:22:16.987Z,30.23
2019-02-18T11:24:45.266Z,29.70
2019-02-18T11:27:13.397Z,32.17
2019-02-18T11:29:41.470Z,33.03
2019-02-18T11:32:09.491Z,27.60
2019-02-18T11:34:37.655Z,36.07
2019-02-18T11:37:06.142Z,30.83
2019-02-18T11:39:34.232Z,31.40
2019-02-18T11:42:02.294Z,25.17
2019-02-18T11:44:30.412Z,24.97
2019-02-18T11:46:58.482Z,28.97
2019-02-18T11:49:26.718Z,25.10
2019-02-18T11:51:55.025Z,33.10
2019-02-18T11:54:23.099Z,23.70
2019-02-18T11:56:51.248Z,25.83
2019-02-18T11:59:24.201Z,28.07
2019-02-18T12:01:49.332Z,26.43
2019-02-18T12:04:17.544Z,30.80
2019-02-18T12:06:45.618Z,31.20
2019-02-18T12:09:13.975Z,26.80
2019-02-18T12:11:42.183Z,28.47
2019-02-18T12:14:10.245Z,29.87
2019-02-18T12:16:38.370Z,27.77
2019-02-18T12:19:07.617Z,28.67
2019-02-18T12:21:35.830Z,27.03
2019-02-18T12:24:03.918Z,29.20
2019-02-18T12:26:32.371Z,29.57
2019-02-18T12:29:00.653Z,28.07
2019-02-18T12:31:28.796Z,31.00
2019-02-18T12:33:56.873Z,30.60
2019-02-18T12:36:24.978Z,30.30
2019-02-18T12:38:53.086Z,29.50
2019-02-18T12:41:21.248Z,28.07
2019-02-18T12:43:49.478Z,27.40
2019-02-18T12:46:17.527Z,30.77
2019-02-18T12:48:45.784Z,32.20
2019-02-18T12:51:15.339Z,25.90
2019-02-18T12:53:46.090Z,30.23
2019-02-18T12:56:13.673Z,25.97
2019-02-18T12:58:42.054Z,26.63
2019-02-18T13:01:10.419Z,29.77
2019-02-18T13:03:38.593Z,27.97
2019-02-18T13:06:06.732Z,24.80
2019-02-18T13:08:34.942Z,25.60
2019-02-18T13:11:03.202Z,28.17
2019-02-18T13:13:31.450Z,26.60
2019-02-18T13:15:59.691Z,26.20
2019-02-18T13:18:28.309Z,24.97
2019-02-18T13:20:56.560Z,27.57
2019-02-18T13:23:24.808Z,27.90
2019-02-18T13:25:53.085Z,28.20
2019-02-18T13:28:21.270Z,29.43
2019-02-18T13:30:49.560Z,29.53
2019-02-18T13:33:18.696Z,25.97
2019-02-18T13:35:46.856Z,26.17
2019-02-18T13:38:15.229Z,26.73
2019-02-18T13:40:43.467Z,27.50
2019-02-18T13:43:11.635Z,29.60
2019-02-18T13:45:39.803Z,25.47
2019-02-18T13:48:08.066Z,24.77
2019-02-18T13:50:36.278Z,24.37
2019-02-18T13:53:04.791Z,26.03
2019-02-18T13:55:33.005Z,24.70
2019-02-18T13:58:01.122Z,25.20
2019-02-18T14:00:30.900Z,24.33
2019-02-18T14:02:59.122Z,23.77
2019-02-18T14:05:27.246Z,29.90
2019-02-18T14:07:55.367Z,26.20
2019-02-18T14:10:23.474Z,26.47
2019-02-18T14:12:51.582Z,23.80
2019-02-18T14:15:20.464Z,25.47
2019-02-18T14:17:50.486Z,23.67
2019-02-18T14:20:18.899Z,24.83
2019-02-18T14:22:47.077Z,27.17
2019-02-18T14:25:15.400Z,23.40
2019-02-18T14:27:43.475Z,28.87
2019-02-18T14:30:13.030Z,27.10
2019-02-18T14:32:41.341Z,25.07
2019-02-18T14:35:10.013Z,26.13
2019-02-18T14:37:38.211Z,26.17
2019-02-18T14:40:08.269Z,25.50
2019-02-18T14:42:36.655Z,27.07
2019-02-18T14:45:05.158Z,26.90
2019-02-18T14:47:34.540Z,26.70
2019-02-18T14:50:02.833Z,25.77
2019-02-18T14:52:31.114Z,24.03
2019-02-18T14:54:59.263Z,29.07
2019-02-18T14:57:27.526Z,25.27
2019-02-18T14:59:55.580Z,24.77
2019-02-18T15:02:23.808Z,23.73
2019-02-18T15:04:51.900Z,28.70
2019-02-18T15:07:20.264Z,28.87
2019-02-18T15:09:48.606Z,27.33
2019-02-18T15:12:18.187Z,26.17
2019-02-18T15:14:46.363Z,28.70
2019-02-18T15:17:14.568Z,24.27
2019-02-18T15:19:42.727Z,25.60
2019-02-18T15:22:10.797Z,25.10
2019-02-18T15:24:38.930Z,25.40
2019-02-18T15:27:07.629Z,28.30
2019-02-18T15:29:35.834Z,26.13
2019-02-18T15:32:04.289Z,26.23
2019-02-18T15:34:32.378Z,25.80
2019-02-18T15:37:00.965Z,23.67
2019-02-18T15:39:29.321Z,25.40
2019-02-18T15:41:57.363Z,27.90
2019-02-18T15:44:25.919Z,26.77
2019-02-18T15:46:54.221Z,24.47
2019-02-18T15:49:23.016Z,25.10
2019-02-18T15:51:52.051Z,23.97
2019-02-18T15:54:20.914Z,27.37
2019-02-18T15:56:49.183Z,23.90
2019-02-18T15:59:19.644Z,24.80
2019-02-18T16:01:47.825Z,27.40
2019-02-18T16:04:16.610Z,29.53
2019-02-18T16:06:44.977Z,28.47
2019-02-18T16:09:13.130Z,24.03
2019-02-18T16:11:41.391Z,23.17
2019-02-18T16:14:09.558Z,23.27
2019-02-18T16:16:37.938Z,26.70
2019-02-18T16:19:06.065Z,29.33
2019-02-18T16:21:34.242Z,27.03
2019-02-18T16:24:02.694Z,28.33
2019-02-18T16:26:31.084Z,26.87
2019-02-18T16:28:59.270Z,24.17
2019-02-18T16:31:41.168Z,26.70
2019-02-18T16:34:12.895Z,27.43
2019-02-18T16:36:41.131Z,26.27
2019-02-18T16:39:10.365Z,25.87
2019-02-18T16:41:38.580Z,25.07
2019-02-18T16:44:06.990Z,25.37
2019-02-18T16:46:35.165Z,24.80
2019-02-18T16:49:03.610Z,24.17
2019-02-18T16:51:31.784Z,24.50
2019-02-18T16:53:59.856Z,25.63
2019-02-18T16:56:27.897Z,29.73
2019-02-18T16:58:56.081Z,25.20
2019-02-18T17:01:24.651Z,24.80
2019-02-18T17:03:53.944Z,26.10
2019-02-18T17:06:22.059Z,25.00
2019-02-18T17:08:50.251Z,27.90
2019-02-18T17:11:18.310Z,28.63
2019-02-18T17:13:46.507Z,29.00
2019-02-18T17:16:14.990Z,25.40
2019-02-18T17:18:44.230Z,31.10
2019-02-18T17:21:13.364Z,26.77
2019-02-18T17:23:41.502Z,25.63
2019-02-18T17:26:09.780Z,28.67
2019-02-18T17:28:38.042Z,24.97
2019-02-18T17:31:06.188Z,26.90
2019-02-18T17:33:34.286Z,33.53
2019-02-18T17:36:02.551Z,27.60
2019-02-18T17:38:30.738Z,27.97
2019-02-18T17:40:59.161Z,29.30
2019-02-18T17:43:29.546Z,28.13
2019-02-18T17:45:57.878Z,28.10
2019-02-18T17:48:26.464Z,30.37
2019-02-18T17:50:54.658Z,28.60
2019-02-18T17:53:22.926Z,27.03
2019-02-18T17:55:51.048Z,30.67
2019-02-18T17:58:19.146Z,27.17
2019-02-18T18:00:49.633Z,31.67
2019-02-18T18:03:17.884Z,31.23
2019-02-18T18:05:46.083Z,33.23
2019-02-18T18:08:14.216Z,32.23
2019-02-18T18:10:42.370Z,36.70
2019-02-18T18:13:10.557Z,28.60
2019-02-18T18:15:40.109Z,27.87
2019-02-18T18:18:08.923Z,29.13
2019-02-18T18:20:37.443Z,34.50
2019-02-18T18:23:06.383Z,29.80
2019-02-18T18:25:34.692Z,31.97
2019-02-18T18:28:03.012Z,34.00
2019-02-18T18:30:31.051Z,33.03
2019-02-18T18:32:59.112Z,29.53
2019-02-18T18:35:27.310Z,30.40
2019-02-18T18:37:55.785Z,30.87
2019-02-18T18:40:43.398Z,27.80
2019-02-18T18:43:11.779Z,30.10
2019-02-18T18:45:40.027Z,31.00
2019-02-18T18:48:09.178Z,30.03
2019-02-18T18:50:38.689Z,31.53
2019-02-18T18:53:07.219Z,32.87
2019-02-18T18:55:35.431Z,29.47
2019-02-18T18:58:03.919Z,33.17
2019-02-18T19:00:34.706Z,27.87
2019-02-18T19:03:03.401Z,33.73
2019-02-18T19:05:31.562Z,29.47
2019-02-18T19:08:00.267Z,31.90
2019-02-18T19:10:29.168Z,28.10
2019-02-18T19:12:58.155Z,31.30
2019-02-18T19:15:27.263Z,31.07
2019-02-18T19:17:56.814Z,32.07
2019-02-18T19:20:26.004Z,31.13
2019-02-18T19:22:54.756Z,30.13
2019-02-18T19:25:23.749Z,29.90
2019-02-18T19:27:52.356Z,35.90
2019-02-18T19:30:23.891Z,32.37
2019-02-18T19:32:52.341Z,32.10
2019-02-18T19:35:23.798Z,33.07
2019-02-18T19:37:52.343Z,35.60
2019-02-18T19:40:21.459Z,30.70
2019-02-18T19:42:49.847Z,33.17
2019-02-18T19:45:19.442Z,34.57
2019-02-18T19:47:47.723Z,31.57
2019-02-18T19:50:18.132Z,33.20
2019-02-18T19:52:46.615Z,30.90
2019-02-18T19:55:14.787Z,36.43
2019-02-18T19:57:43.198Z,38.27
2019-02-18T20:00:14.144Z,28.73
2019-02-18T20:02:43.268Z,32.90
2019-02-18T20:05:12.101Z,29.33
2019-02-18T20:07:40.841Z,30.30
2019-02-18T20:10:09.496Z,35.50
2019-02-18T20:12:37.868Z,29.90
2019-02-18T20:15:06.523Z,30.50
2019-02-18T20:17:34.703Z,33.63
2019-02-18T20:20:03.086Z,34.07
2019-02-18T20:22:31.416Z,34.90
2019-02-18T20:24:59.483Z,31.60
2019-02-18T20:27:27.553Z,32.90
2019-02-18T20:29:55.610Z,33.17
2019-02-18T20:32:24.015Z,33.30
2019-02-18T20:34:52.034Z,34.70
2019-02-18T20:37:20.132Z,35.67
2019-02-18T20:39:48.249Z,35.03
2019-02-18T20:42:17.081Z,38.03
2019-02-18T20:44:45.259Z,37.27
2019-02-18T20:47:13.800Z,37.53
2019-02-18T20:49:41.933Z,37.23
2019-02-18T20:52:10.185Z,35.40
2019-02-18T20:54:38.342Z,32.90
2019-02-18T20:57:06.455Z,30.90
2019-02-18T20:59:34.605Z,28.73
2019-02-18T21:02:02.706Z,32.30
2019-02-18T21:04:30.855Z,27.87
2019-02-18T21:06:58.964Z,29.70
2019-02-18T21:09:28.125Z,34.50
2019-02-18T21:11:56.235Z,32.50
2019-02-18T21:14:24.597Z,32.63
2019-02-18T21:16:52.713Z,30.87
2019-02-18T21:19:21.212Z,26.97
2019-02-18T21:21:49.364Z,25.17
2019-02-18T21:24:17.519Z,26.13
2019-02-18T21:26:45.658Z,29.90
2019-02-18T21:29:13.880Z,27.77
2019-02-18T21:31:41.948Z,27.27
2019-02-18T21:34:10.993Z,27.13
2019-02-18T21:36:39.107Z,28.67
2019-02-18T21:39:11.879Z,28.37
2019-02-18T21:41:40.785Z,25.33
2019-02-18T21:44:09.036Z,24.67
2019-02-18T21:46:37.122Z,26.50
2019-02-18T21:49:05.266Z,28.20
2019-02-18T21:51:33.777Z,25.67
2019-02-18T21:54:01.825Z,25.27
2019-02-18T21:56:29.926Z,26.67
2019-02-18T21:58:58.061Z,24.75
2019-02-18T22:01:27.663Z,24.97
2019-02-18T22:03:55.884Z,24.50
2019-02-18T22:06:24.239Z,24.65
2019-02-18T22:08:52.308Z,26.37
2019-02-18T22:11:20.379Z,25.97
2019-02-18T22:13:49.484Z,27.83
2019-02-18T22:16:17.755Z,23.50
2019-02-18T22:18:46.072Z,23.87
2019-02-18T22:21:14.202Z,27.03
2019-02-18T22:23:42.777Z,26.93
2019-02-18T22:26:10.905Z,25.13
2019-02-18T22:28:38.975Z,25.07
2019-02-18T22:31:07.033Z,26.30
2019-02-18T22:33:35.265Z,22.27
2019-02-18T22:36:03.622Z,24.50
2019-02-18T22:38:31.799Z,25.43
2019-02-18T22:41:00.341Z,24.80
2019-02-18T22:43:28.389Z,27.70
2019-02-18T22:45:56.498Z,25.20
2019-02-18T22:48:24.538Z,26.33
2019-02-18T22:50:52.804Z,26.17
2019-02-18T22:53:20.948Z,29.40
2019-02-18T22:55:49.331Z,27.77
2019-02-18T22:58:17.939Z,26.30
2019-02-18T23:00:57.806Z,25.53
2019-02-18T23:03:25.984Z,28.50
2019-02-18T23:05:54.011Z,25.67
2019-02-18T23:08:22.410Z,27.53
2019-02-18T23:10:50.542Z,28.23
2019-02-18T23:13:19.171Z,26.80
2019-02-18T23:15:47.405Z,25.10
2019-02-18T23:18:16.146Z,24.90
2019-02-18T23:20:44.769Z,26.37
2019-02-18T23:23:12.956Z,25.13
2019-02-18T23:25:41.070Z,23.93
2019-02-18T23:28:09.305Z,28.73
2019-02-18T23:30:38.950Z,28.43
2019-02-18T23:33:07.535Z,27.83
2019-02-18T23:35:35.623Z,25.80
2019-02-18T23:38:03.681Z,28.67
2019-02-18T23:40:31.748Z,25.93
2019-02-18T23:42:59.869Z,29.10
2019-02-18T23:45:28.318Z,25.97
2019-02-18T23:47:56.420Z,25.40
2019-02-18T23:50:24.609Z,27.43
2019-02-18T23:52:52.697Z,28.17
2019-02-18T23:55:28.182Z,29.80
2019-02-18T23:57:53.621Z,28.00
